This is the latest recevied weather packets stored in our database for station/object KM4NDI. If no packets are shown the sender has not sent any weather packets the latest 10 day(s).
| Time | Temp. | Humidity | Pressure | Rain* | Wind** | Luminosity | Snow |
|---|---|---|---|---|---|---|---|
| 1777327528 | 28.89° C | 70% | 1017.2 hPa | 0 mm | - | - | - |
| 1777326316 | 30° C | 68% | 1017.3 hPa | 0 mm | - | - | - |
| 1777322120 | 30.56° C | 67% | 1018.6 hPa | 0 mm | - | - | - |
| 1777320329 | 30.56° C | 69% | 1018.9 hPa | 0 mm | - | - | - |
| 1777310725 | 27.78° C | 79% | 1019.6 hPa | 0 mm | - | - | - |
| 1777309519 | 27.22° C | 81% | 1019.9 hPa | 0 mm | - | - | - |
| 1777307126 | 26.11° C | 85% | 1020.1 hPa | 0 mm | - | - | - |
| 1777306529 | 26.11° C | 85% | 1020.2 hPa | 0 mm | - | - | - |
| 1777304720 | 26.11° C | 86% | 1020.2 hPa | 0 mm | - | - | - |
| 1777301718 | 25° C | 92% | 1020.2 hPa | 0 mm | - | - | - |
| 1777301121 | 24.44° C | 93% | 1019.9 hPa | 0 mm | - | - | - |
| 1777299330 | 23.89° C | 98% | 1019.9 hPa | 0 mm | - | - | - |
| 1777287937 | 17.22° C | 99% | 1017.6 hPa | 0 mm | - | - | - |
| 1777286126 | 16.67° C | 99% | 1017.2 hPa | 0 mm | - | - | - |
| 1777281315 | 16.11° C | 99% | 1016.9 hPa | 0 mm | - | - | - |
| 1777280121 | 15.56° C | 99% | 1016.7 hPa | 0 mm | - | - | - |
| 1777279525 | 15.56° C | 99% | 1016.6 hPa | 0 mm | - | - | - |
| 1777278928 | 16.11° C | 99% | 1016.5 hPa | 0 mm | - | - | - |
| 1777275925 | 16.67° C | 99% | 1016.7 hPa | 0 mm | - | - | - |
| 1777274731 | 16.67° C | 99% | 1016.4 hPa | 0 mm | - | - | - |
| 1777273520 | 16.67° C | 99% | 1016.5 hPa | 0 mm | - | - | - |
| 1777269324 | 17.22° C | 99% | 1016.6 hPa | 0 mm | - | - | - |
| 1777268130 | 17.22° C | 99% | 1016.8 hPa | 0 mm | - | - | - |
| 1777266918 | 17.78° C | 99% | 1016.7 hPa | 0 mm | - | - | - |
| 1777265128 | 18.33° C | 99% | 1016.3 hPa | 0 mm | - | - | - |
* Rain latest hour (hover to see other rain measurements)
** Current wind speed in m/s (hover to see current wind gust speed)